createdAt,value
2023-01-08T00:01:39.803Z,96563.63
2023-01-08T00:04:08.507Z,96563.09
2023-01-08T00:06:37.614Z,96558.25
2023-01-08T00:09:07.272Z,96549.91
2023-01-08T00:11:35.860Z,96553.69
2023-01-08T00:14:04.499Z,96559.56
2023-01-08T00:16:33.367Z,96549.66
2023-01-08T00:19:01.712Z,96552.06
2023-01-08T00:21:30.800Z,96541.03
2023-01-08T00:23:59.375Z,96543.44
2023-01-08T00:26:29.012Z,96535.91
2023-01-08T00:28:57.922Z,96534.84
2023-01-08T00:31:26.577Z,96529.47
2023-01-08T00:33:55.165Z,96528.13
2023-01-08T00:36:23.742Z,96523.53
2023-01-08T00:38:52.342Z,96531.88
2023-01-08T00:41:21.003Z,96527.56
2023-01-08T00:43:50.955Z,96525.91
2023-01-08T00:46:19.651Z,96522.97
2023-01-08T00:48:48.329Z,96528.06
2023-01-08T00:51:16.657Z,96531.56
2023-01-08T00:53:45.228Z,96540.97
2023-01-08T00:56:13.913Z,96538.56
2023-01-08T00:58:42.500Z,96536.41
2023-01-08T01:01:13.853Z,96535.31
2023-01-08T01:03:43.186Z,96518.16
2023-01-08T01:06:13.412Z,96499.06
2023-01-08T01:08:42.242Z,96493.97
2023-01-08T01:11:11.656Z,96496.16
2023-01-08T01:13:40.289Z,96489.69
2023-01-08T01:16:09.720Z,96481.06
2023-01-08T01:18:39.486Z,96491.53
2023-01-08T01:21:13.093Z,96492.09
2023-01-08T01:23:41.878Z,96486.44
2023-01-08T01:26:17.455Z,96475.97
2023-01-08T01:28:48.111Z,96487.53
2023-01-08T01:31:16.720Z,96488.88
2023-01-08T01:33:47.523Z,96493.44
2023-01-08T01:36:18.152Z,96492.91
2023-01-08T01:38:47.946Z,96492.09
2023-01-08T01:41:26.319Z,96495.56
2023-01-08T01:43:56.433Z,96481.03
2023-01-08T01:46:36.954Z,96479.97
2023-01-08T01:49:11.647Z,96471.91
2023-01-08T01:51:48.804Z,96471.34
2023-01-08T01:54:18.939Z,96473.53
2023-01-08T01:56:48.237Z,96477.84
2023-01-08T01:59:17.495Z,96477.31
2023-01-08T02:01:46.857Z,96476.25
2023-01-08T02:04:17.051Z,96487.50
2023-01-08T02:06:51.888Z,96493.41
2023-01-08T02:09:34.085Z,96501.47
2023-01-08T02:12:18.436Z,96488.03
2023-01-08T02:15:06.664Z,96494.78
2023-01-08T02:17:45.519Z,96483.47
2023-01-08T02:20:19.847Z,96472.41
2023-01-08T02:23:13.468Z,96473.47
2023-01-08T02:26:13.596Z,96463.28
2023-01-08T02:28:48.279Z,96458.34
2023-01-08T02:31:18.862Z,96452.97
2023-01-08T02:33:47.426Z,96458.91
2023-01-08T02:36:36.629Z,96457.84
2023-01-08T02:39:35.178Z,96451.94
2023-01-08T02:42:17.101Z,96451.16
2023-01-08T02:44:59.019Z,96441.19
2023-01-08T02:47:33.579Z,96433.13
2023-01-08T02:50:20.808Z,96438.50
2023-01-08T02:53:02.704Z,96436.41
2023-01-08T02:55:34.411Z,96427.28
2023-01-08T02:58:06.259Z,96429.44
2023-01-08T03:00:35.828Z,96433.22
2023-01-08T03:03:10.874Z,96431.31
2023-01-08T03:05:42.857Z,96429.44
2023-01-08T03:08:12.870Z,96423.00
2023-01-08T03:10:46.442Z,96424.06
2023-01-08T03:13:22.688Z,96424.91
2023-01-08T03:15:57.333Z,96414.16
2023-01-08T03:18:36.038Z,96408.00
2023-01-08T03:21:07.756Z,96415.53
2023-01-08T03:23:39.974Z,96420.06
2023-01-08T03:26:10.421Z,96424.38
2023-01-08T03:28:46.456Z,96424.91
2023-01-08T03:31:18.561Z,96439.94
2023-01-08T03:33:49.089Z,96439.94
2023-01-08T03:36:23.251Z,96430.56
2023-01-08T03:39:00.517Z,96418.72
2023-01-08T03:41:33.726Z,96417.94
2023-01-08T03:44:04.449Z,96427.88
2023-01-08T03:46:36.997Z,96420.09
2023-01-08T03:49:09.006Z,96413.63
2023-01-08T03:51:41.850Z,96406.38
2023-01-08T03:54:14.277Z,96393.72
2023-01-08T03:56:42.806Z,96401.25
2023-01-08T03:59:13.966Z,96400.47
2023-01-08T04:01:42.872Z,96392.41
2023-01-08T04:04:12.816Z,96387.56
2023-01-08T04:06:41.367Z,96373.09
2023-01-08T04:09:09.867Z,96355.88
2023-01-08T04:11:38.730Z,96362.88
2023-01-08T04:14:07.281Z,96356.97
2023-01-08T04:16:36.948Z,96354.28
2023-01-08T04:19:05.436Z,96348.09
2023-01-08T04:21:34.093Z,96352.63
2023-01-08T04:24:02.296Z,96343.75
2023-01-08T04:26:31.117Z,96340.25
2023-01-08T04:28:59.735Z,96337.06
2023-01-08T04:31:28.306Z,96339.19
2023-01-08T04:33:57.981Z,96340.78
2023-01-08T04:36:26.631Z,96331.13
2023-01-08T04:38:55.180Z,96333.53
2023-01-08T04:41:23.710Z,96334.91
2023-01-08T04:43:51.934Z,96325.22
2023-01-08T04:46:20.519Z,96329.50
2023-01-08T04:48:48.726Z,96332.16
2023-01-08T04:51:18.315Z,96340.78
2023-01-08T04:53:46.879Z,96339.16
2023-01-08T04:56:15.398Z,96334.31
2023-01-08T04:58:43.944Z,96331.09
2023-01-08T05:01:14.502Z,96334.81
2023-01-08T05:03:43.051Z,96335.59
2023-01-08T05:06:11.549Z,96336.09
2023-01-08T05:08:41.132Z,96327.50
2023-01-08T05:11:09.602Z,96348.19
2023-01-08T05:13:38.129Z,96335.84
2023-01-08T05:16:06.940Z,96333.72
2023-01-08T05:18:35.519Z,96326.75
2023-01-08T05:21:05.957Z,96322.97
2023-01-08T05:23:35.971Z,96326.44
2023-01-08T05:26:07.589Z,96317.03
2023-01-08T05:28:36.437Z,96318.13
2023-01-08T05:31:05.975Z,96308.75
2023-01-08T05:33:34.515Z,96307.41
2023-01-08T05:36:05.595Z,96315.47
2023-01-08T05:38:33.773Z,96306.09
2023-01-08T05:41:02.308Z,96306.41
2023-01-08T05:43:31.988Z,96317.41
2023-01-08T05:46:01.005Z,96321.97
2023-01-08T05:48:30.484Z,96319.56
2023-01-08T05:50:59.054Z,96331.94
2023-01-08T05:53:27.681Z,96326.56
2023-01-08T05:56:01.385Z,96327.38
2023-01-08T05:58:32.351Z,96324.44
2023-01-08T06:01:06.006Z,96321.22
2023-01-08T06:03:34.190Z,96320.16
2023-01-08T06:06:04.080Z,96327.91
2023-01-08T06:08:33.543Z,96333.81
2023-01-08T06:11:02.581Z,96330.59
2023-01-08T06:13:32.358Z,96328.44
2023-01-08T06:16:03.265Z,96331.69
2023-01-08T06:18:32.085Z,96333.25
2023-01-08T06:21:00.436Z,96327.13
2023-01-08T06:23:28.982Z,96320.66
2023-01-08T06:26:00.959Z,96315.84
2023-01-08T06:28:29.267Z,96314.47
2023-01-08T06:31:01.302Z,96324.41
2023-01-08T06:33:30.341Z,96319.06
2023-01-08T06:36:02.289Z,96314.50
2023-01-08T06:38:33.574Z,96311.81
2023-01-08T06:41:05.869Z,96309.97
2023-01-08T06:43:36.400Z,96308.59
2023-01-08T06:46:06.917Z,96302.41
2023-01-08T06:48:35.888Z,96294.34
2023-01-08T06:51:06.248Z,96299.22
2023-01-08T06:53:34.808Z,96300.25
2023-01-08T06:56:07.482Z,96295.97
2023-01-08T06:58:35.777Z,96302.66
2023-01-08T07:01:05.764Z,96295.69
2023-01-08T07:03:34.331Z,96296.75
2023-01-08T07:06:04.477Z,96308.00
2023-01-08T07:08:33.015Z,96305.84
2023-01-08T07:11:04.506Z,96303.94
2023-01-08T07:13:33.124Z,96317.31
2023-01-08T07:16:08.426Z,96313.03
2023-01-08T07:18:37.161Z,96315.97
2023-01-08T07:21:09.795Z,96327.50
2023-01-08T07:23:38.980Z,96322.38
2023-01-08T07:26:08.764Z,96326.41
2023-01-08T07:28:37.396Z,96336.31
2023-01-08T07:31:08.069Z,96333.91
2023-01-08T07:33:36.963Z,96340.63
2023-01-08T07:36:07.927Z,96337.69
2023-01-08T07:38:36.451Z,96329.34
2023-01-08T07:41:05.065Z,96325.28
2023-01-08T07:43:35.262Z,96320.19
2023-01-08T07:46:04.503Z,96311.59
2023-01-08T07:48:34.707Z,96319.69
2023-01-08T07:51:03.995Z,96321.81
2023-01-08T07:53:32.340Z,96313.72
2023-01-08T07:56:01.664Z,96321.25
2023-01-08T07:58:29.965Z,96320.69
2023-01-08T08:00:59.455Z,96324.41
2023-01-08T08:03:28.441Z,96338.91
2023-01-08T08:05:58.024Z,96328.91
2023-01-08T08:08:26.253Z,96327.81
2023-01-08T08:10:54.848Z,96328.28
2023-01-08T08:13:23.523Z,96333.03
2023-01-08T08:15:52.231Z,96328.13
2023-01-08T08:18:21.007Z,96328.13
2023-01-08T08:20:52.031Z,96327.03
2023-01-08T08:23:22.025Z,96319.44
2023-01-08T08:25:51.879Z,96329.34
2023-01-08T08:28:20.477Z,96321.31
2023-01-08T08:30:48.812Z,96323.72
2023-01-08T08:33:17.392Z,96329.63
2023-01-08T08:35:51.115Z,96328.47
2023-01-08T08:38:23.164Z,96312.03
2023-01-08T08:40:52.235Z,96306.34
2023-01-08T08:43:20.759Z,96317.91
2023-01-08T08:45:48.998Z,96309.88
2023-01-08T08:48:17.731Z,96306.38
2023-01-08T08:50:46.863Z,96304.78
2023-01-08T08:53:15.176Z,96314.16
2023-01-08T08:55:44.674Z,96310.00
2023-01-08T08:58:14.694Z,96309.34
2023-01-08T09:00:44.525Z,96307.94
2023-01-08T09:03:15.311Z,96313.75
2023-01-08T09:05:44.439Z,96308.34
2023-01-08T09:08:13.694Z,96309.09
2023-01-08T09:10:43.856Z,96301.19
2023-01-08T09:13:12.623Z,96294.41
2023-01-08T09:15:41.084Z,96308.69
2023-01-08T09:18:09.769Z,96311.06
2023-01-08T09:20:38.553Z,96313.44
2023-01-08T09:23:07.155Z,96321.63
2023-01-08T09:25:35.783Z,96337.81
2023-01-08T09:28:09.809Z,96331.84
2023-01-08T09:30:38.275Z,96328.34
2023-01-08T09:33:07.663Z,96320.41
2023-01-08T09:35:36.137Z,96329.97
2023-01-08T09:38:04.375Z,96335.91
2023-01-08T09:40:39.460Z,96333.50
2023-01-08T09:43:16.783Z,96332.06
2023-01-08T09:45:49.828Z,96318.13
2023-01-08T09:48:23.047Z,96317.97
2023-01-08T09:50:51.293Z,96310.94
2023-01-08T09:53:20.919Z,96308.81
2023-01-08T09:56:09.166Z,96304.91
2023-01-08T09:58:42.535Z,96303.44
2023-01-08T10:01:16.041Z,96310.16
2023-01-08T10:03:48.302Z,96305.03
2023-01-08T10:06:18.547Z,96305.97
2023-01-08T10:08:47.382Z,96300.97
2023-01-08T10:11:16.934Z,96291.84
2023-01-08T10:13:53.322Z,96295.56
2023-01-08T10:16:31.253Z,96290.44
2023-01-08T10:19:01.779Z,96280.69
2023-01-08T10:21:33.063Z,96283.00
2023-01-08T10:24:01.311Z,96274.53
2023-01-08T10:26:33.318Z,96249.81
2023-01-08T10:29:17.161Z,96254.81
2023-01-08T10:31:52.147Z,96251.44
2023-01-08T10:34:29.317Z,96254.97
2023-01-08T10:36:58.199Z,96258.28
2023-01-08T10:39:29.761Z,96268.56
2023-01-08T10:42:07.486Z,96247.44
2023-01-08T10:44:37.947Z,96267.97
2023-01-08T10:47:07.368Z,96266.84
2023-01-08T10:49:41.907Z,96260.22
2023-01-08T10:52:25.110Z,96285.50
2023-01-08T10:54:54.044Z,96292.56
2023-01-08T10:57:26.503Z,96285.31
2023-01-08T10:59:57.422Z,96275.50
2023-01-08T11:02:38.602Z,96270.56
2023-01-08T11:05:11.413Z,96259.88
2023-01-08T11:07:41.229Z,96264.47
2023-01-08T11:10:24.632Z,96251.81
2023-01-08T11:12:58.840Z,96242.78
2023-01-08T11:15:38.843Z,96236.75
2023-01-08T11:18:23.865Z,96240.31
2023-01-08T11:20:54.801Z,96256.25
2023-01-08T11:23:26.571Z,96257.56
2023-01-08T11:26:08.104Z,96263.69
2023-01-08T11:28:51.847Z,96242.03
2023-01-08T11:31:34.324Z,96229.47
2023-01-08T11:34:16.667Z,96232.59
2023-01-08T11:36:52.265Z,96213.09
2023-01-08T11:39:20.989Z,96205.22
2023-01-08T11:42:12.532Z,96223.19
2023-01-08T11:44:57.374Z,96219.56
2023-01-08T11:47:48.713Z,96212.56
2023-01-08T11:50:25.833Z,96216.75
2023-01-08T11:53:15.950Z,96220.78
2023-01-08T11:55:58.556Z,96207.84
2023-01-08T11:58:49.247Z,96206.38
2023-01-08T12:01:29.481Z,96205.16
2023-01-08T12:04:27.971Z,96207.56
2023-01-08T12:07:11.350Z,96199.75
2023-01-08T12:09:45.865Z,96192.94
2023-01-08T12:12:41.152Z,96197.34
2023-01-08T12:15:20.786Z,96192.13
2023-01-08T12:18:24.357Z,96188.22
2023-01-08T12:21:05.222Z,96176.03
2023-01-08T12:24:00.507Z,96174.59
2023-01-08T12:26:35.846Z,96161.91
2023-01-08T12:29:33.609Z,96167.09
2023-01-08T12:32:24.390Z,96152.66
2023-01-08T12:35:00.803Z,96144.53
2023-01-08T12:37:41.213Z,96138.13
2023-01-08T12:40:17.904Z,96130.09
2023-01-08T12:42:59.999Z,96139.91
2023-01-08T12:45:32.795Z,96126.97
2023-01-08T12:48:08.109Z,96116.53
2023-01-08T12:50:50.519Z,96110.09
2023-01-08T12:53:32.575Z,96095.63
2023-01-08T12:56:09.850Z,96108.25
2023-01-08T12:59:08.171Z,96110.78
2023-01-08T13:01:48.608Z,96099.00
2023-01-08T13:04:17.746Z,96105.59
2023-01-08T13:06:55.789Z,96092.16
2023-01-08T13:09:28.097Z,96102.16
2023-01-08T13:12:00.509Z,96088.63
2023-01-08T13:14:29.506Z,96076.50
2023-01-08T13:17:06.871Z,96072.50
2023-01-08T13:19:43.509Z,96084.88
2023-01-08T13:22:26.657Z,96077.03
2023-01-08T13:25:12.429Z,96084.81
2023-01-08T13:27:41.179Z,96083.19
2023-01-08T13:30:40.201Z,96075.69
2023-01-08T13:33:41.356Z,96064.38
2023-01-08T13:36:21.200Z,96063.53
2023-01-08T13:39:07.778Z,96062.66
2023-01-08T13:41:40.227Z,96058.63
2023-01-08T13:44:22.724Z,96065.22
2023-01-08T13:46:56.396Z,96075.88
2023-01-08T13:49:33.646Z,96069.66
2023-01-08T13:52:02.399Z,96080.69
2023-01-08T13:54:37.952Z,96073.03
2023-01-08T13:57:18.007Z,96068.94
2023-01-08T13:59:53.146Z,96078.47
2023-01-08T14:02:29.990Z,96076.00
2023-01-08T14:04:59.889Z,96091.09
2023-01-08T14:07:29.240Z,96086.31
2023-01-08T14:10:10.036Z,96090.13
2023-01-08T14:12:40.828Z,96098.72
2023-01-08T14:15:14.882Z,96092.00
2023-01-08T14:17:45.688Z,96088.53
2023-01-08T14:20:14.512Z,96087.91
2023-01-08T14:22:44.046Z,96084.28
2023-01-08T14:25:20.095Z,96088.09
2023-01-08T14:28:02.752Z,96078.88
2023-01-08T14:30:31.404Z,96081.28
2023-01-08T14:33:01.866Z,96076.78
2023-01-08T14:35:35.549Z,96082.00
2023-01-08T14:38:05.755Z,96086.72
2023-01-08T14:40:40.986Z,96079.72
2023-01-08T14:43:14.624Z,96074.81
2023-01-08T14:45:49.415Z,96078.31
2023-01-08T14:48:26.466Z,96077.31
2023-01-08T14:51:05.223Z,96081.13
2023-01-08T14:53:37.265Z,96074.41
2023-01-08T14:56:08.282Z,96069.00
2023-01-08T14:58:42.795Z,96059.78
2023-01-08T15:01:19.454Z,96054.06
2023-01-08T15:03:49.646Z,96051.97
2023-01-08T15:06:27.132Z,96061.81
2023-01-08T15:08:56.136Z,96069.94
2023-01-08T15:11:29.568Z,96064.22
2023-01-08T15:14:00.901Z,96073.91
2023-01-08T15:16:32.956Z,96076.31
2023-01-08T15:19:08.805Z,96070.78
2023-01-08T15:21:38.322Z,96076.50
2023-01-08T15:24:09.096Z,96066.94
2023-01-08T15:26:43.636Z,96050.78
2023-01-08T15:29:23.902Z,96049.38
2023-01-08T15:31:52.519Z,96046.19
2023-01-08T15:34:21.960Z,96041.09
2023-01-08T15:36:50.515Z,96040.50
2023-01-08T15:39:18.799Z,96037.69
2023-01-08T15:42:05.067Z,96023.88
2023-01-08T15:44:34.812Z,96028.97
2023-01-08T15:47:03.424Z,96032.84
2023-01-08T15:49:32.071Z,96026.97
2023-01-08T15:52:00.665Z,96024.06
2023-01-08T15:54:29.260Z,96011.16
2023-01-08T15:56:57.820Z,96007.75
2023-01-08T15:59:26.186Z,96007.56
2023-01-08T16:01:55.773Z,96022.78
2023-01-08T16:04:24.755Z,96018.19
2023-01-08T16:06:53.297Z,96012.38
2023-01-08T16:09:21.583Z,96008.53
2023-01-08T16:11:50.384Z,96014.53
2023-01-08T16:14:18.994Z,96006.44
2023-01-08T16:16:47.699Z,95992.09
2023-01-08T16:19:17.660Z,95985.28
2023-01-08T16:21:48.247Z,95978.09
2023-01-08T16:24:16.950Z,95959.78
2023-01-08T16:26:45.518Z,95980.31
2023-01-08T16:29:14.570Z,95968.47
2023-01-08T16:31:47.022Z,95966.91
2023-01-08T16:34:17.427Z,95971.50
2023-01-08T16:36:46.084Z,95952.16
2023-01-08T16:39:14.582Z,95964.28
2023-01-08T16:41:43.155Z,95950.53
2023-01-08T16:44:20.677Z,95952.25
2023-01-08T16:46:49.756Z,95949.06
2023-01-08T16:49:19.396Z,95942.16
2023-01-08T16:51:48.421Z,95930.47
2023-01-08T16:54:17.910Z,95924.38
2023-01-08T16:56:46.829Z,95908.34
2023-01-08T16:59:23.380Z,95904.88
2023-01-08T17:01:52.583Z,95888.44
2023-01-08T17:04:22.309Z,95887.88
2023-01-08T17:06:50.897Z,95887.59
2023-01-08T17:09:19.324Z,95888.88
2023-01-08T17:11:48.591Z,95877.63
2023-01-08T17:14:17.854Z,95876.41
2023-01-08T17:16:47.489Z,95872.81
2023-01-08T17:19:17.317Z,95867.75
2023-01-08T17:21:48.133Z,95861.63
2023-01-08T17:24:16.769Z,95850.06
2023-01-08T17:26:45.247Z,95834.22
2023-01-08T17:29:13.887Z,95833.78
2023-01-08T17:31:42.628Z,95833.00
2023-01-08T17:34:14.684Z,95831.69
2023-01-08T17:36:43.708Z,95836.47
2023-01-08T17:39:14.171Z,95830.78
2023-01-08T17:42:00.042Z,95840.50
2023-01-08T17:44:30.991Z,95844.78
2023-01-08T17:46:59.583Z,95851.53
2023-01-08T17:49:28.221Z,95833.75
2023-01-08T17:51:57.075Z,95831.81
2023-01-08T17:54:27.022Z,95830.38
2023-01-08T17:56:55.399Z,95817.16
2023-01-08T17:59:24.164Z,95816.19
2023-01-08T18:01:54.509Z,95809.31
2023-01-08T18:04:23.146Z,95806.25
2023-01-08T18:06:51.724Z,95803.88
2023-01-08T18:09:20.540Z,95785.56
2023-01-08T18:11:50.430Z,95790.28
2023-01-08T18:14:19.043Z,95784.69
2023-01-08T18:16:49.527Z,95791.34
2023-01-08T18:19:19.994Z,95785.44
2023-01-08T18:21:49.155Z,95787.53
2023-01-08T18:24:17.763Z,95779.06
2023-01-08T18:26:46.786Z,95786.81
2023-01-08T18:29:16.608Z,95784.53
2023-01-08T18:31:46.401Z,95778.97
2023-01-08T18:34:15.509Z,95771.59
2023-01-08T18:36:44.247Z,95771.59
2023-01-08T18:39:13.705Z,95771.59
2023-01-08T18:42:01.814Z,95768.50
2023-01-08T18:44:31.699Z,95771.66
2023-01-08T18:47:00.286Z,95766.84
2023-01-08T18:49:28.855Z,95771.47
2023-01-08T18:51:57.682Z,95770.19
2023-01-08T18:54:26.256Z,95753.00
2023-01-08T18:56:54.829Z,95749.69
2023-01-08T18:59:24.430Z,95738.09
2023-01-08T19:01:54.107Z,95733.47
2023-01-08T19:04:22.805Z,95734.88
2023-01-08T19:06:51.435Z,95734.22
2023-01-08T19:09:20.092Z,95730.03
2023-01-08T19:11:48.821Z,95730.34
2023-01-08T19:14:17.165Z,95739.22
2023-01-08T19:16:51.154Z,95738.31
2023-01-08T19:19:21.835Z,95742.31
2023-01-08T19:21:50.244Z,95732.91
2023-01-08T19:24:18.879Z,95737.69
2023-01-08T19:26:47.643Z,95727.38
2023-01-08T19:29:15.877Z,95739.47
2023-01-08T19:31:44.440Z,95729.47
2023-01-08T19:34:13.376Z,95729.69
2023-01-08T19:36:43.806Z,95723.28
2023-01-08T19:39:12.768Z,95724.59
2023-01-08T19:41:58.929Z,95719.66
2023-01-08T19:44:27.560Z,95709.34
2023-01-08T19:46:55.873Z,95713.78
2023-01-08T19:49:26.045Z,95703.28
2023-01-08T19:51:55.763Z,95711.06
2023-01-08T19:54:25.933Z,95702.03
2023-01-08T19:56:54.922Z,95700.75
2023-01-08T19:59:24.816Z,95686.16
2023-01-08T20:01:53.282Z,95692.03
2023-01-08T20:04:22.329Z,95675.34
2023-01-08T20:06:52.416Z,95672.75
2023-01-08T20:09:22.292Z,95669.09
2023-01-08T20:11:50.873Z,95668.31
2023-01-08T20:14:20.968Z,95666.53
2023-01-08T20:16:50.086Z,95652.72
2023-01-08T20:19:18.761Z,95647.00
2023-01-08T20:21:47.217Z,95635.69
2023-01-08T20:24:15.518Z,95620.31
2023-01-08T20:26:46.997Z,95614.28
2023-01-08T20:29:17.752Z,95608.53
2023-01-08T20:31:46.145Z,95605.66
2023-01-08T20:34:17.082Z,95603.72
2023-01-08T20:36:46.554Z,95602.66
2023-01-08T20:39:17.794Z,95598.03
2023-01-08T20:42:00.897Z,95584.38
2023-01-08T20:44:32.190Z,95587.59
2023-01-08T20:47:01.193Z,95588.38
2023-01-08T20:49:29.965Z,95590.47
2023-01-08T20:52:00.111Z,95575.84
2023-01-08T20:54:30.604Z,95566.78
2023-01-08T20:57:01.737Z,95569.66
2023-01-08T20:59:31.320Z,95581.25
2023-01-08T21:01:59.884Z,95576.03
2023-01-08T21:04:28.667Z,95581.91
2023-01-08T21:06:57.533Z,95576.69
2023-01-08T21:09:26.232Z,95578.59
2023-01-08T21:11:54.854Z,95574.59
2023-01-08T21:14:25.173Z,95577.63
2023-01-08T21:16:53.773Z,95583.19
2023-01-08T21:19:22.049Z,95582.56
2023-01-08T21:21:50.300Z,95577.63
2023-01-08T21:24:20.078Z,95577.63
2023-01-08T21:26:48.699Z,95582.06
2023-01-08T21:29:19.845Z,95583.00
2023-01-08T21:31:49.874Z,95576.28
2023-01-08T21:34:18.193Z,95579.91
2023-01-08T21:36:46.803Z,95582.69
2023-01-08T21:39:15.471Z,95582.19
2023-01-08T21:42:01.468Z,95581.88
2023-01-08T21:44:47.422Z,95576.28
2023-01-08T21:47:19.423Z,95564.84
2023-01-08T21:49:48.292Z,95563.72
2023-01-08T21:52:34.402Z,95566.25
2023-01-08T21:55:03.418Z,95566.09
2023-01-08T21:57:31.676Z,95559.44
2023-01-08T21:59:59.932Z,95549.28
2023-01-08T22:02:29.730Z,95544.72
2023-01-08T22:04:58.664Z,95531.97
2023-01-08T22:07:27.843Z,95532.88
2023-01-08T22:09:56.654Z,95523.81
2023-01-08T22:12:26.121Z,95525.25
2023-01-08T22:14:55.255Z,95512.53
2023-01-08T22:17:25.764Z,95520.94
2023-01-08T22:19:57.888Z,95512.38
2023-01-08T22:22:26.582Z,95507.75
2023-01-08T22:24:55.676Z,95502.03
2023-01-08T22:27:24.415Z,95504.25
2023-01-08T22:29:52.755Z,95498.25
2023-01-08T22:32:21.388Z,95500.44
2023-01-08T22:34:50.591Z,95499.19
2023-01-08T22:37:21.813Z,95492.03
2023-01-08T22:39:50.843Z,95491.25
2023-01-08T22:42:19.098Z,95494.59
2023-01-08T22:44:49.710Z,95491.41
2023-01-08T22:47:18.020Z,95484.75
2023-01-08T22:49:46.623Z,95479.16
2023-01-08T22:52:15.563Z,95472.66
2023-01-08T22:54:45.376Z,95463.47
2023-01-08T22:57:14.020Z,95450.44
2023-01-08T22:59:42.623Z,95443.44
2023-01-08T23:02:11.230Z,95449.34
2023-01-08T23:04:39.815Z,95448.69
2023-01-08T23:07:08.700Z,95446.34
2023-01-08T23:09:37.292Z,95442.72
2023-01-08T23:12:07.562Z,95445.13
2023-01-08T23:14:35.877Z,95448.75
2023-01-08T23:17:04.544Z,95442.09
2023-01-08T23:19:33.164Z,95447.81
2023-01-08T23:22:01.573Z,95450.06
2023-01-08T23:24:30.974Z,95451.81
2023-01-08T23:26:59.768Z,95437.19
2023-01-08T23:29:32.050Z,95444.91
2023-01-08T23:32:00.800Z,95437.78
2023-01-08T23:34:29.463Z,95440.78
2023-01-08T23:36:57.862Z,95435.19
2023-01-08T23:39:26.733Z,95439.50
2023-01-08T23:41:56.194Z,95423.44
2023-01-08T23:44:24.844Z,95417.44
2023-01-08T23:46:54.842Z,95414.25
2023-01-08T23:49:23.428Z,95405.84
2023-01-08T23:51:51.763Z,95407.09
2023-01-08T23:54:20.471Z,95393.91
2023-01-08T23:56:49.510Z,95386.75
2023-01-08T23:59:18.057Z,95381.06
